createdAt,value
2023-03-05T00:02:06.885Z,99807.69
2023-03-05T00:04:33.491Z,99806.00
2023-03-05T00:07:00.026Z,99795.69
2023-03-05T00:09:26.575Z,99800.03
2023-03-05T00:11:53.065Z,99788.75
2023-03-05T00:14:19.674Z,99799.97
2023-03-05T00:16:46.231Z,99800.88
2023-03-05T00:19:12.795Z,99798.22
2023-03-05T00:21:41.413Z,99792.13
2023-03-05T00:24:18.188Z,99792.97
2023-03-05T00:26:46.005Z,99778.31
2023-03-05T00:29:15.776Z,99787.78
2023-03-05T00:31:44.382Z,99782.50
2023-03-05T00:34:15.507Z,99782.56
2023-03-05T00:36:44.133Z,99775.66
2023-03-05T00:39:12.437Z,99770.47
2023-03-05T00:41:39.080Z,99764.41
2023-03-05T00:44:05.996Z,99759.16
2023-03-05T00:46:33.110Z,99752.19
2023-03-05T00:48:59.653Z,99758.16
2023-03-05T00:51:26.712Z,99751.22
2023-03-05T00:53:53.583Z,99754.59
2023-03-05T00:56:20.415Z,99745.13
2023-03-05T00:58:47.011Z,99752.97
2023-03-05T01:01:14.541Z,99745.13
2023-03-05T01:03:41.211Z,99739.78
2023-03-05T01:06:12.776Z,99739.72
2023-03-05T01:08:40.250Z,99744.00
2023-03-05T01:11:07.860Z,99734.47
2023-03-05T01:13:34.707Z,99732.75
2023-03-05T01:16:01.830Z,99725.06
2023-03-05T01:18:28.434Z,99735.59
2023-03-05T01:20:54.968Z,99730.34
2023-03-05T01:23:21.631Z,99726.13
2023-03-05T01:25:55.534Z,99719.00
2023-03-05T01:28:22.243Z,99719.03
2023-03-05T01:30:49.042Z,99712.94
2023-03-05T01:33:15.867Z,99709.34
2023-03-05T01:35:42.488Z,99716.28
2023-03-05T01:38:09.274Z,99717.81
2023-03-05T01:40:35.732Z,99709.97
2023-03-05T01:43:29.462Z,99710.88
2023-03-05T01:46:26.598Z,99709.22
2023-03-05T01:49:03.943Z,99697.06
2023-03-05T01:51:36.905Z,99708.34
2023-03-05T01:54:07.591Z,99705.63
2023-03-05T01:56:34.980Z,99699.59
2023-03-05T01:59:05.393Z,99697.03
2023-03-05T02:01:44.671Z,99695.28
2023-03-05T02:04:16.172Z,99701.34
2023-03-05T02:06:43.664Z,99684.06
2023-03-05T02:09:10.410Z,99685.91
2023-03-05T02:11:37.463Z,99694.41
2023-03-05T02:14:05.143Z,99694.44
2023-03-05T02:16:36.954Z,99689.13
2023-03-05T02:19:06.571Z,99697.75
2023-03-05T02:21:39.587Z,99697.75
2023-03-05T02:24:06.674Z,99689.00
2023-03-05T02:26:33.255Z,99693.16
2023-03-05T02:29:03.060Z,99686.06
2023-03-05T02:31:31.167Z,99689.47
2023-03-05T02:33:57.913Z,99683.31
2023-03-05T02:36:25.015Z,99675.50
2023-03-05T02:38:53.024Z,99668.50
2023-03-05T02:41:19.853Z,99671.84
2023-03-05T02:43:46.429Z,99663.78
2023-03-05T02:46:13.065Z,99659.50
2023-03-05T02:48:39.681Z,99657.75
2023-03-05T02:51:07.177Z,99661.91
2023-03-05T02:53:33.710Z,99650.78
2023-03-05T02:56:00.563Z,99660.16
2023-03-05T02:58:27.090Z,99652.13
2023-03-05T03:00:53.650Z,99652.06
2023-03-05T03:03:20.244Z,99650.53
2023-03-05T03:05:46.804Z,99643.31
2023-03-05T03:08:13.360Z,99643.88
2023-03-05T03:10:39.889Z,99640.09
2023-03-05T03:13:06.432Z,99639.53
2023-03-05T03:15:33.378Z,99643.53
2023-03-05T03:17:59.861Z,99634.19
2023-03-05T03:20:26.486Z,99633.28
2023-03-05T03:22:53.691Z,99628.66
2023-03-05T03:25:23.137Z,99627.78
2023-03-05T03:27:49.837Z,99617.59
2023-03-05T03:30:16.787Z,99619.94
2023-03-05T03:32:43.888Z,99622.34
2023-03-05T03:35:12.809Z,99611.09
2023-03-05T03:37:39.806Z,99602.25
2023-03-05T03:40:07.319Z,99599.59
2023-03-05T03:42:33.993Z,99611.94
2023-03-05T03:45:02.428Z,99605.75
2023-03-05T03:47:30.253Z,99603.88
2023-03-05T03:49:58.999Z,99592.94
2023-03-05T03:52:26.486Z,99585.72
2023-03-05T03:54:53.223Z,99586.59
2023-03-05T03:57:19.771Z,99582.56
2023-03-05T03:59:46.281Z,99580.03
2023-03-05T04:02:12.973Z,99573.00
2023-03-05T04:04:39.675Z,99565.84
2023-03-05T04:07:06.380Z,99567.72
2023-03-05T04:09:32.889Z,99569.69
2023-03-05T04:11:59.384Z,99560.91
2023-03-05T04:14:26.755Z,99568.78
2023-03-05T04:16:53.729Z,99560.28
2023-03-05T04:19:20.205Z,99556.63
2023-03-05T04:21:46.782Z,99553.91
2023-03-05T04:24:13.395Z,99555.00
2023-03-05T04:26:39.891Z,99548.16
2023-03-05T04:29:06.378Z,99541.16
2023-03-05T04:31:32.966Z,99532.06
2023-03-05T04:33:59.914Z,99532.00
2023-03-05T04:36:27.687Z,99531.28
2023-03-05T04:38:54.262Z,99535.66
2023-03-05T04:41:20.833Z,99531.44
2023-03-05T04:43:47.412Z,99520.16
2023-03-05T04:46:14.014Z,99518.44
2023-03-05T04:48:40.580Z,99517.59
2023-03-05T04:51:07.263Z,99520.16
2023-03-05T04:53:34.135Z,99513.41
2023-03-05T04:56:01.730Z,99514.25
2023-03-05T04:58:29.148Z,99506.66
2023-03-05T05:01:00.771Z,99511.91
2023-03-05T05:03:27.242Z,99510.22
2023-03-05T05:05:58.861Z,99504.75
2023-03-05T05:08:26.460Z,99503.13
2023-03-05T05:11:01.339Z,99505.66
2023-03-05T05:13:28.584Z,99517.59
2023-03-05T05:15:55.448Z,99514.09
2023-03-05T05:18:22.256Z,99514.88
2023-03-05T05:20:49.207Z,99518.38
2023-03-05T05:23:16.563Z,99508.41
2023-03-05T05:25:46.017Z,99503.28
2023-03-05T05:28:13.097Z,99503.22
2023-03-05T05:30:39.693Z,99499.63
2023-03-05T05:33:06.166Z,99499.78
2023-03-05T05:35:32.996Z,99498.00
2023-03-05T05:37:59.566Z,99499.59
2023-03-05T05:40:26.102Z,99495.25
2023-03-05T05:42:52.624Z,99496.03
2023-03-05T05:45:19.292Z,99493.38
2023-03-05T05:47:45.835Z,99489.22
2023-03-05T05:50:12.708Z,99484.88
2023-03-05T05:52:39.303Z,99484.16
2023-03-05T05:55:06.959Z,99479.88
2023-03-05T05:57:34.628Z,99495.47
2023-03-05T06:00:01.389Z,99482.59
2023-03-05T06:02:27.936Z,99487.75
2023-03-05T06:04:55.430Z,99479.31
2023-03-05T06:07:23.141Z,99479.25
2023-03-05T06:09:49.654Z,99474.88
2023-03-05T06:12:16.219Z,99477.41
2023-03-05T06:14:42.759Z,99478.81
2023-03-05T06:17:11.251Z,99473.66
2023-03-05T06:19:39.351Z,99464.47
2023-03-05T06:22:05.915Z,99459.91
2023-03-05T06:24:32.458Z,99455.72
2023-03-05T06:26:58.929Z,99469.59
2023-03-05T06:29:25.492Z,99459.34
2023-03-05T06:31:52.030Z,99457.63
2023-03-05T06:34:18.537Z,99453.34
2023-03-05T06:36:45.092Z,99448.19
2023-03-05T06:39:11.989Z,99449.81
2023-03-05T06:41:38.813Z,99454.22
2023-03-05T06:44:05.632Z,99450.94
2023-03-05T06:46:34.572Z,99452.59
2023-03-05T06:49:03.934Z,99454.50
2023-03-05T06:51:35.923Z,99455.41
2023-03-05T06:54:08.235Z,99460.69
2023-03-05T06:56:39.362Z,99461.72
2023-03-05T06:59:06.949Z,99457.41
2023-03-05T07:01:33.866Z,99457.47
2023-03-05T07:04:02.955Z,99455.94
2023-03-05T07:06:32.446Z,99464.69
2023-03-05T07:09:01.432Z,99465.59
2023-03-05T07:11:28.921Z,99464.94
2023-03-05T07:13:55.666Z,99454.00
2023-03-05T07:16:31.741Z,99457.78
2023-03-05T07:19:00.034Z,99451.03
2023-03-05T07:21:28.763Z,99452.00
2023-03-05T07:23:58.838Z,99453.88
2023-03-05T07:26:26.451Z,99450.69
2023-03-05T07:28:53.946Z,99441.31
2023-03-05T07:31:23.115Z,99442.38
2023-03-05T07:33:50.686Z,99449.47
2023-03-05T07:36:17.982Z,99453.16
2023-03-05T07:38:44.664Z,99440.31
2023-03-05T07:41:14.652Z,99438.53
2023-03-05T07:43:41.345Z,99437.78
2023-03-05T07:46:10.097Z,99442.19
2023-03-05T07:48:37.176Z,99444.06
2023-03-05T07:51:06.367Z,99436.47
2023-03-05T07:53:32.981Z,99441.84
2023-03-05T07:55:59.520Z,99441.00
2023-03-05T07:58:26.263Z,99435.84
2023-03-05T08:00:52.807Z,99449.69
2023-03-05T08:03:19.311Z,99436.84
2023-03-05T08:05:46.084Z,99428.16
2023-03-05T08:08:12.883Z,99438.34
2023-03-05T08:10:39.398Z,99430.47
2023-03-05T08:13:06.257Z,99439.97
2023-03-05T08:15:32.805Z,99440.41
2023-03-05T08:17:59.745Z,99448.41
2023-03-05T08:20:26.424Z,99447.47
2023-03-05T08:22:54.212Z,99447.06
2023-03-05T08:25:21.334Z,99441.78
2023-03-05T08:27:48.363Z,99456.38
2023-03-05T08:30:21.810Z,99460.50
2023-03-05T08:32:51.985Z,99457.25
2023-03-05T08:35:18.680Z,99453.06
2023-03-05T08:37:45.298Z,99465.81
2023-03-05T08:40:12.601Z,99455.34
2023-03-05T08:42:39.172Z,99458.97
2023-03-05T08:45:06.229Z,99452.06
2023-03-05T08:47:32.776Z,99451.91
2023-03-05T08:49:59.277Z,99446.97
2023-03-05T08:52:27.478Z,99439.19
2023-03-05T08:54:54.082Z,99447.19
2023-03-05T08:57:20.722Z,99458.28
2023-03-05T08:59:47.510Z,99454.78
2023-03-05T09:02:14.263Z,99455.69
2023-03-05T09:04:41.008Z,99446.03
2023-03-05T09:07:07.582Z,99450.50
2023-03-05T09:09:34.272Z,99445.56
2023-03-05T09:12:02.206Z,99438.72
2023-03-05T09:14:29.565Z,99439.34
2023-03-05T09:16:57.818Z,99447.31
2023-03-05T09:19:25.126Z,99437.72
2023-03-05T09:21:51.680Z,99443.06
2023-03-05T09:24:18.213Z,99443.34
2023-03-05T09:26:44.725Z,99439.69
2023-03-05T09:29:14.148Z,99443.53
2023-03-05T09:31:40.803Z,99449.97
2023-03-05T09:34:08.343Z,99438.84
2023-03-05T09:36:34.902Z,99444.13
2023-03-05T09:39:01.429Z,99449.63
2023-03-05T09:41:51.557Z,99439.72
2023-03-05T09:44:41.631Z,99444.19
2023-03-05T09:47:45.332Z,99448.03
2023-03-05T09:50:42.408Z,99449.97
2023-03-05T09:53:27.951Z,99435.09
2023-03-05T09:56:25.770Z,99437.78
2023-03-05T09:59:03.976Z,99435.94
2023-03-05T10:01:38.953Z,99433.00
2023-03-05T10:04:24.438Z,99426.78
2023-03-05T10:06:58.484Z,99421.19
2023-03-05T10:09:51.253Z,99423.09
2023-03-05T10:12:21.170Z,99421.91
2023-03-05T10:14:49.344Z,99415.97
2023-03-05T10:17:37.418Z,99414.22
2023-03-05T10:20:25.158Z,99411.97
2023-03-05T10:23:02.659Z,99415.00
2023-03-05T10:25:58.491Z,99402.56
2023-03-05T10:28:55.047Z,99408.56
2023-03-05T10:31:35.296Z,99396.38
2023-03-05T10:34:21.312Z,99401.06
2023-03-05T10:37:08.235Z,99387.34
2023-03-05T10:40:05.711Z,99380.25
2023-03-05T10:42:56.821Z,99377.63
2023-03-05T10:45:29.277Z,99368.44
2023-03-05T10:48:03.418Z,99378.00
2023-03-05T10:50:45.022Z,99374.88
2023-03-05T10:53:26.964Z,99375.16
2023-03-05T10:55:56.341Z,99364.78
2023-03-05T10:58:24.878Z,99370.81
2023-03-05T11:01:09.986Z,99363.13
2023-03-05T11:03:57.372Z,99368.31
2023-03-05T11:09:32.500Z,99370.88
2023-03-05T11:12:16.848Z,99359.72
2023-03-05T11:15:03.848Z,99359.91
2023-03-05T11:17:43.128Z,99358.19
2023-03-05T11:20:27.743Z,99347.59
2023-03-05T11:23:18.283Z,99356.16
2023-03-05T11:26:02.667Z,99354.16
2023-03-05T11:28:56.985Z,99347.28
2023-03-05T11:31:26.981Z,99345.03
2023-03-05T11:34:03.085Z,99341.94
2023-03-05T11:36:39.061Z,99343.53
2023-03-05T11:39:08.599Z,99331.00
2023-03-05T11:41:43.200Z,99325.16
2023-03-05T11:44:22.912Z,99333.50
2023-03-05T11:46:59.047Z,99332.91
2023-03-05T11:49:28.082Z,99329.19
2023-03-05T11:52:21.013Z,99325.41
2023-03-05T11:54:59.204Z,99311.22
2023-03-05T11:57:27.220Z,99312.88
2023-03-05T11:59:58.164Z,99307.47
2023-03-05T12:02:27.960Z,99307.22
2023-03-05T12:04:56.111Z,99303.63
2023-03-05T12:07:40.832Z,99296.84
2023-03-05T12:10:18.710Z,99298.00
2023-03-05T12:13:00.205Z,99300.88
2023-03-05T12:15:42.328Z,99284.66
2023-03-05T12:18:30.645Z,99282.44
2023-03-05T12:21:42.184Z,99278.19
2023-03-05T12:24:25.509Z,99269.91
2023-03-05T12:26:54.417Z,99279.34
2023-03-05T12:29:29.334Z,99286.66
2023-03-05T12:31:56.949Z,99287.69
2023-03-05T12:34:41.842Z,99281.38
2023-03-05T12:37:20.625Z,99284.56
2023-03-05T12:39:49.753Z,99280.34
2023-03-05T12:42:28.449Z,99276.75
2023-03-05T12:45:10.195Z,99274.94
2023-03-05T12:47:40.244Z,99272.81
2023-03-05T12:50:28.585Z,99277.91
2023-03-05T12:52:58.165Z,99273.56
2023-03-05T12:55:29.890Z,99269.09
2023-03-05T12:58:34.748Z,99265.00
2023-03-05T13:01:29.537Z,99272.59
2023-03-05T13:04:10.978Z,99269.63
2023-03-05T13:06:39.643Z,99268.50
2023-03-05T13:09:38.671Z,99266.72
2023-03-05T13:12:13.501Z,99276.03
2023-03-05T13:14:48.030Z,99273.28
2023-03-05T13:17:34.351Z,99263.78
2023-03-05T13:20:02.686Z,99274.88
2023-03-05T13:22:30.395Z,99268.88
2023-03-05T13:25:17.238Z,99268.13
2023-03-05T13:27:44.061Z,99255.28
2023-03-05T13:30:26.456Z,99266.72
2023-03-05T13:32:57.784Z,99264.34
2023-03-05T13:35:24.428Z,99267.00
2023-03-05T13:37:51.364Z,99274.69
2023-03-05T13:40:24.652Z,99266.84
2023-03-05T13:42:53.420Z,99275.50
2023-03-05T13:45:31.922Z,99279.78
2023-03-05T13:48:05.010Z,99287.69
2023-03-05T13:50:36.858Z,99274.59
2023-03-05T13:53:25.051Z,99281.81
2023-03-05T13:55:54.699Z,99280.78
2023-03-05T13:58:40.595Z,99276.19
2023-03-05T14:01:33.705Z,99282.94
2023-03-05T14:04:12.666Z,99274.22
2023-03-05T14:06:50.179Z,99270.94
2023-03-05T14:09:28.510Z,99259.09
2023-03-05T14:12:04.608Z,99258.47
2023-03-05T14:14:36.672Z,99258.69
2023-03-05T14:17:37.681Z,99261.09
2023-03-05T14:20:13.365Z,99256.63
2023-03-05T14:22:43.143Z,99262.16
2023-03-05T14:25:36.660Z,99262.34
2023-03-05T14:28:06.999Z,99250.38
2023-03-05T14:30:36.204Z,99255.56
2023-03-05T14:33:03.697Z,99252.97
2023-03-05T14:35:31.053Z,99254.91
2023-03-05T14:37:59.874Z,99246.88
2023-03-05T14:40:32.674Z,99259.22
2023-03-05T14:43:00.598Z,99249.19
2023-03-05T14:45:29.811Z,99247.00
2023-03-05T14:48:00.277Z,99252.22
2023-03-05T14:50:36.288Z,99250.53
2023-03-05T14:53:07.433Z,99249.63
2023-03-05T14:55:35.226Z,99243.00
2023-03-05T14:58:14.313Z,99245.69
2023-03-05T15:00:41.744Z,99251.13
2023-03-05T15:03:15.827Z,99242.25
2023-03-05T15:05:43.794Z,99247.03
2023-03-05T15:08:15.632Z,99242.69
2023-03-05T15:10:42.314Z,99245.28
2023-03-05T15:13:08.991Z,99249.78
2023-03-05T15:15:35.684Z,99248.84
2023-03-05T15:18:02.296Z,99254.94
2023-03-05T15:20:30.541Z,99251.28
2023-03-05T15:22:57.124Z,99247.13
2023-03-05T15:25:26.720Z,99245.19
2023-03-05T15:27:53.236Z,99256.88
2023-03-05T15:30:29.159Z,99245.75
2023-03-05T15:32:57.773Z,99250.25
2023-03-05T15:35:25.829Z,99235.66
2023-03-05T15:37:52.694Z,99239.09
2023-03-05T15:40:21.051Z,99242.31
2023-03-05T15:42:48.728Z,99243.16
2023-03-05T15:45:15.512Z,99246.63
2023-03-05T15:47:42.019Z,99242.09
2023-03-05T15:50:10.519Z,99231.44
2023-03-05T15:52:37.017Z,99238.22
2023-03-05T15:55:03.845Z,99237.22
2023-03-05T15:57:30.393Z,99239.00
2023-03-05T15:59:57.036Z,99234.44
2023-03-05T16:02:24.843Z,99235.28
2023-03-05T16:04:51.379Z,99239.66
2023-03-05T16:07:19.329Z,99235.28
2023-03-05T16:09:50.346Z,99237.09
2023-03-05T16:12:24.069Z,99238.81
2023-03-05T16:14:52.243Z,99231.88
2023-03-05T16:17:20.895Z,99232.75
2023-03-05T16:19:50.192Z,99232.75
2023-03-05T16:22:16.892Z,99233.56
2023-03-05T16:24:43.474Z,99230.59
2023-03-05T16:27:10.789Z,99233.84
2023-03-05T16:29:37.593Z,99230.47
2023-03-05T16:32:05.450Z,99227.88
2023-03-05T16:34:34.612Z,99230.44
2023-03-05T16:37:04.474Z,99226.06
2023-03-05T16:39:31.076Z,99233.53
2023-03-05T16:41:57.961Z,99235.00
2023-03-05T16:44:25.129Z,99229.63
2023-03-05T16:46:54.005Z,99223.53
2023-03-05T16:49:21.064Z,99225.22
2023-03-05T16:51:48.287Z,99226.03
2023-03-05T16:54:15.229Z,99230.34
2023-03-05T16:56:41.760Z,99233.75
2023-03-05T16:59:08.240Z,99231.91
2023-03-05T17:01:34.817Z,99231.06
2023-03-05T17:04:02.220Z,99230.97
2023-03-05T17:06:31.439Z,99240.25
2023-03-05T17:08:58.395Z,99242.75
2023-03-05T17:11:25.949Z,99252.09
2023-03-05T17:13:52.959Z,99256.34
2023-03-05T17:16:20.552Z,99254.59
2023-03-05T17:18:47.678Z,99243.31
2023-03-05T17:21:15.308Z,99254.38
2023-03-05T17:23:41.891Z,99249.94
2023-03-05T17:26:11.813Z,99254.91
2023-03-05T17:28:39.236Z,99250.44
2023-03-05T17:31:06.044Z,99258.16
2023-03-05T17:33:34.289Z,99252.00
2023-03-05T17:36:01.124Z,99251.94
2023-03-05T17:38:28.112Z,99257.00
2023-03-05T17:40:54.656Z,99246.41
2023-03-05T17:43:22.049Z,99255.84
2023-03-05T17:45:48.937Z,99250.63
2023-03-05T17:48:16.032Z,99259.19
2023-03-05T17:50:45.132Z,99246.19
2023-03-05T17:53:12.160Z,99249.53
2023-03-05T17:55:39.615Z,99246.00
2023-03-05T17:58:06.477Z,99241.75
2023-03-05T18:00:33.450Z,99237.41
2023-03-05T18:03:00.211Z,99227.94
2023-03-05T18:05:28.238Z,99222.63
2023-03-05T18:07:55.631Z,99235.50
2023-03-05T18:10:24.751Z,99234.69
2023-03-05T18:12:52.379Z,99232.06
2023-03-05T18:15:20.534Z,99228.63
2023-03-05T18:17:47.211Z,99222.56
2023-03-05T18:20:32.066Z,99234.50
2023-03-05T18:23:00.645Z,99243.13
2023-03-05T18:25:31.900Z,99232.81
2023-03-05T18:28:12.251Z,99228.47
2023-03-05T18:30:40.795Z,99226.84
2023-03-05T18:33:08.848Z,99230.06
2023-03-05T18:35:35.599Z,99218.03
2023-03-05T18:38:02.340Z,99226.50
2023-03-05T18:40:32.615Z,99223.09
2023-03-05T18:43:00.914Z,99212.81
2023-03-05T18:45:28.671Z,99210.97
2023-03-05T18:47:56.690Z,99225.63
2023-03-05T18:50:26.418Z,99216.94
2023-03-05T18:52:53.856Z,99215.28
2023-03-05T18:55:24.612Z,99209.22
2023-03-05T18:57:51.311Z,99224.69
2023-03-05T19:00:21.927Z,99229.06
2023-03-05T19:02:48.784Z,99218.66
2023-03-05T19:05:16.354Z,99211.75
2023-03-05T19:07:43.317Z,99223.88
2023-03-05T19:10:11.620Z,99221.19
2023-03-05T19:12:46.341Z,99223.72
2023-03-05T19:15:13.485Z,99221.25
2023-03-05T19:17:40.659Z,99210.13
2023-03-05T19:20:11.076Z,99208.38
2023-03-05T19:22:37.635Z,99209.19
2023-03-05T19:25:05.336Z,99217.03
2023-03-05T19:27:32.113Z,99220.47
2023-03-05T19:30:00.185Z,99212.84
2023-03-05T19:32:26.772Z,99206.16
2023-03-05T19:34:57.698Z,99207.69
2023-03-05T19:37:25.421Z,99197.41
2023-03-05T19:39:52.214Z,99192.97
2023-03-05T19:42:18.824Z,99208.69
2023-03-05T19:44:45.600Z,99195.91
2023-03-05T19:47:12.422Z,99195.75
2023-03-05T19:49:39.154Z,99204.41
2023-03-05T19:52:06.349Z,99196.53
2023-03-05T19:54:32.938Z,99204.31
2023-03-05T19:57:00.218Z,99201.81
2023-03-05T19:59:27.001Z,99207.94
2023-03-05T20:01:53.642Z,99199.19
2023-03-05T20:04:23.245Z,99207.94
2023-03-05T20:06:50.176Z,99205.13
2023-03-05T20:09:17.154Z,99196.50
2023-03-05T20:11:44.624Z,99197.34
2023-03-05T20:14:14.603Z,99199.94
2023-03-05T20:16:43.128Z,99192.13
2023-03-05T20:19:16.368Z,99200.03
2023-03-05T20:21:43.218Z,99194.75
2023-03-05T20:24:14.315Z,99189.53
2023-03-05T20:26:44.807Z,99188.75
2023-03-05T20:29:12.690Z,99187.69
2023-03-05T20:31:40.771Z,99191.28
2023-03-05T20:34:10.317Z,99189.34
2023-03-05T20:36:37.200Z,99187.69
2023-03-05T20:39:05.411Z,99185.97
2023-03-05T20:41:37.966Z,99192.88
2023-03-05T20:44:05.459Z,99192.81
2023-03-05T20:46:39.919Z,99199.56
2023-03-05T20:49:06.484Z,99201.41
2023-03-05T20:51:36.264Z,99187.69
2023-03-05T20:54:06.818Z,99187.63
2023-03-05T20:56:35.040Z,99189.34
2023-03-05T20:59:04.684Z,99187.69
2023-03-05T21:01:33.939Z,99190.34
2023-03-05T21:04:02.994Z,99186.84
2023-03-05T21:06:31.653Z,99185.00
2023-03-05T21:08:59.685Z,99185.84
2023-03-05T21:11:26.795Z,99183.22
2023-03-05T21:13:53.558Z,99185.78
2023-03-05T21:16:23.362Z,99186.75
2023-03-05T21:18:51.152Z,99191.81
2023-03-05T21:21:19.022Z,99185.00
2023-03-05T21:23:46.006Z,99176.41
2023-03-05T21:26:13.489Z,99182.41
2023-03-05T21:28:41.089Z,99173.88
2023-03-05T21:31:10.897Z,99179.84
2023-03-05T21:33:37.516Z,99172.97
2023-03-05T21:36:04.677Z,99176.41
2023-03-05T21:38:34.060Z,99172.06
2023-03-05T21:41:02.049Z,99177.38
2023-03-05T21:43:31.258Z,99173.03
2023-03-05T21:45:59.800Z,99171.38
2023-03-05T21:48:26.444Z,99166.16
2023-03-05T21:50:53.106Z,99149.03
2023-03-05T21:53:20.315Z,99159.47
2023-03-05T21:56:02.605Z,99161.25
2023-03-05T21:58:34.131Z,99156.78
2023-03-05T22:01:00.872Z,99156.88
2023-03-05T22:03:28.030Z,99157.75
2023-03-05T22:05:55.587Z,99155.97
2023-03-05T22:08:23.180Z,99149.06
2023-03-05T22:10:50.218Z,99152.69
2023-03-05T22:13:18.017Z,99139.91
2023-03-05T22:15:49.973Z,99137.16
2023-03-05T22:18:19.480Z,99141.41
2023-03-05T22:20:47.267Z,99137.13
2023-03-05T22:23:14.387Z,99134.59
2023-03-05T22:25:42.244Z,99128.53
2023-03-05T22:28:10.687Z,99122.47
2023-03-05T22:30:43.185Z,99127.63
2023-03-05T22:33:09.819Z,99131.13
2023-03-05T22:35:39.498Z,99124.41
2023-03-05T22:38:06.346Z,99122.66
2023-03-05T22:40:32.833Z,99120.06
2023-03-05T22:42:59.346Z,99120.81
2023-03-05T22:45:25.866Z,99118.88
2023-03-05T22:47:52.410Z,99124.94
2023-03-05T22:50:18.973Z,99127.63
2023-03-05T22:52:47.115Z,99119.03
2023-03-05T22:55:15.691Z,99123.31
2023-03-05T22:57:43.114Z,99118.13
2023-03-05T23:00:16.475Z,99118.19
2023-03-05T23:02:43.651Z,99110.38
2023-03-05T23:05:11.449Z,99117.13
2023-03-05T23:07:40.866Z,99117.13
2023-03-05T23:10:09.742Z,99117.03
2023-03-05T23:12:40.245Z,99117.13
2023-03-05T23:15:12.935Z,99117.94
2023-03-05T23:17:39.536Z,99119.53
2023-03-05T23:20:09.420Z,99115.09
2023-03-05T23:22:37.046Z,99106.25
2023-03-05T23:25:03.980Z,99106.91
2023-03-05T23:27:30.514Z,99109.34
2023-03-05T23:30:19.978Z,99104.03
2023-03-05T23:33:19.857Z,99112.50
2023-03-05T23:36:12.578Z,99115.72
2023-03-05T23:38:39.152Z,99103.56
2023-03-05T23:41:09.506Z,99113.63
2023-03-05T23:43:36.085Z,99104.91
2023-03-05T23:46:02.650Z,99111.63
2023-03-05T23:48:30.598Z,99098.59
2023-03-05T23:50:57.098Z,99098.81
2023-03-05T23:53:26.569Z,99111.56
2023-03-05T23:55:54.462Z,99107.13
2023-03-05T23:58:21.829Z,99100.00
